Time;durP1;ratioP1;P1;durP2;ratioP2;P2;SDS_P1;SDS_P2;PMS_P1;PMS_P2;Temp;Humidity;BMP_temperature;BMP_pressure;BME280_temperature;BME280_humidity;BME280_pressure;Samples;Min_cycle;Max_cycle;Signal;HPM_P1;HPM_P2
2020/12/15 00:00:32;;;;;;;66.73;32.13;;;;;;;;;;5016861;28;20184;-79
2020/12/15 00:02:57;;;;;;;57.77;29.80;;;;;;;;;;5016457;28;20173;-79
2020/12/15 00:05:22;;;;;;;69.37;35.97;;;;;;;;;;5016752;28;20232;-79
2020/12/15 00:07:48;;;;;;;63.27;34.57;;;;;;;;;;5016116;28;20231;-79
2020/12/15 00:10:13;;;;;;;54.47;28.70;;;;;;;;;;5016071;28;20205;-78
2020/12/15 00:12:38;;;;;;;53.27;26.67;;;;;;;;;;5016111;28;20597;-79
2020/12/15 00:15:04;;;;;;;39.73;22.53;;;;;;;;;;5016567;28;20169;-79
2020/12/15 00:17:29;;;;;;;45.70;24.70;;;;;;;;;;5016562;28;20181;-79
2020/12/15 00:19:54;;;;;;;51.57;25.80;;;;;;;;;;5016160;28;20180;-79
2020/12/15 00:22:20;;;;;;;49.83;26.13;;;;;;;;;;5016647;28;20189;-78
2020/12/15 00:24:45;;;;;;;44.90;25.80;;;;;;;;;;5015929;28;20173;-78
2020/12/15 00:27:10;;;;;;;43.30;23.90;;;;;;;;;;5015994;28;20176;-78
2020/12/15 00:29:36;;;;;;;40.10;23.17;;;;;;;;;;5015699;28;20201;-78
2020/12/15 00:32:02;;;;;;;42.50;22.43;;;;;;;;;;5016116;28;20536;-78
2020/12/15 00:34:27;;;;;;;45.37;23.50;;;;;;;;;;5016159;28;20613;-78
2020/12/15 00:36:56;;;;;;;40.57;21.23;;;;;;;;;;5015897;28;20165;-78
2020/12/15 00:39:21;;;;;;;50.47;28.40;;;;;;;;;;5015551;28;20209;-79
2020/12/15 00:41:47;;;;;;;43.57;23.63;;;;;;;;;;5015879;28;20177;-79
2020/12/15 00:44:13;;;;;;;42.17;23.80;;;;;;;;;;5016447;28;20184;-78
2020/12/15 00:46:38;;;;;;;41.60;23.63;;;;;;;;;;5016303;28;20177;-79
2020/12/15 00:49:03;;;;;;;49.33;26.90;;;;;;;;;;5015568;28;20211;-79
2020/12/15 00:51:29;;;;;;;43.27;25.33;;;;;;;;;;5015561;28;20224;-79
2020/12/15 00:53:54;;;;;;;41.27;23.10;;;;;;;;;;5015313;28;20177;-79
2020/12/15 00:56:19;;;;;;;43.70;24.63;;;;;;;;;;5015212;28;20195;-79
2020/12/15 00:58:45;;;;;;;41.87;23.47;;;;;;;;;;5015704;28;20267;-79
2020/12/15 01:01:11;;;;;;;49.30;23.20;;;;;;;;;;5015743;28;20173;-78
2020/12/15 01:03:36;;;;;;;41.27;22.90;;;;;;;;;;5015425;28;20177;-79
2020/12/15 01:06:03;;;;;;;44.53;24.80;;;;;;;;;;5015293;28;20200;-79
2020/12/15 01:08:28;;;;;;;44.27;24.80;;;;;;;;;;5014497;28;20197;-78
2020/12/15 01:10:54;;;;;;;51.50;26.83;;;;;;;;;;5015483;28;20223;-79
2020/12/15 01:13:19;;;;;;;40.67;22.67;;;;;;;;;;5015441;28;20205;-79
2020/12/15 01:15:44;;;;;;;40.57;21.03;;;;;;;;;;5015711;28;20174;-79
2020/12/15 01:18:10;;;;;;;39.10;22.77;;;;;;;;;;5015134;28;20608;-78
2020/12/15 01:20:35;;;;;;;36.93;20.47;;;;;;;;;;5015044;28;20620;-79
2020/12/15 01:23:01;;;;;;;38.27;21.30;;;;;;;;;;5015265;28;20173;-78
2020/12/15 01:25:26;;;;;;;40.47;22.50;;;;;;;;;;5014777;28;20614;-78
2020/12/15 01:27:51;;;;;;;42.27;22.77;;;;;;;;;;5015001;28;20173;-78
2020/12/15 01:30:17;;;;;;;38.77;21.50;;;;;;;;;;5015137;28;20197;-78
2020/12/15 01:32:42;;;;;;;39.60;20.97;;;;;;;;;;5014782;28;20229;-79
2020/12/15 01:35:07;;;;;;;45.33;22.60;;;;;;;;;;5014900;28;20170;-78
2020/12/15 01:37:34;;;;;;;43.13;24.10;;;;;;;;;;5015133;28;20173;-79
2020/12/15 01:39:59;;;;;;;38.97;23.83;;;;;;;;;;5014770;28;20181;-79
2020/12/15 01:42:24;;;;;;;44.93;25.87;;;;;;;;;;5014744;28;20169;-79
2020/12/15 01:44:50;;;;;;;38.67;22.63;;;;;;;;;;5014946;28;20165;-78
2020/12/15 01:47:16;;;;;;;47.00;24.90;;;;;;;;;;5014598;28;20263;-79
2020/12/15 01:49:42;;;;;;;44.60;25.93;;;;;;;;;;5015071;28;20203;-78
2020/12/15 01:52:07;;;;;;;61.90;34.90;;;;;;;;;;5014792;28;20184;-79
2020/12/15 01:54:33;;;;;;;44.93;27.47;;;;;;;;;;5014312;28;20256;-79
2020/12/15 01:56:58;;;;;;;50.20;28.60;;;;;;;;;;5014472;28;20272;-79
2020/12/15 01:59:24;;;;;;;41.57;22.67;;;;;;;;;;5014056;28;20584;-79
2020/12/15 02:01:49;;;;;;;41.43;24.23;;;;;;;;;;5014192;28;20188;-79
2020/12/15 02:04:14;;;;;;;51.03;30.57;;;;;;;;;;5014642;28;20263;-79
2020/12/15 02:06:47;;;;;;;52.50;30.40;;;;;;;;;;5014349;28;20180;-79
2020/12/15 02:09:14;;;;;;;35.90;22.00;;;;;;;;;;5014028;28;20589;-78
2020/12/15 02:11:39;;;;;;;54.77;29.43;;;;;;;;;;5014371;28;20205;-78
2020/12/15 02:14:05;;;;;;;45.07;23.90;;;;;;;;;;5014056;28;20575;-79
2020/12/15 02:16:31;;;;;;;45.33;24.83;;;;;;;;;;5014512;28;20177;-79
2020/12/15 02:18:56;;;;;;;37.87;21.63;;;;;;;;;;5014105;28;20256;-79
2020/12/15 02:21:22;;;;;;;46.23;24.27;;;;;;;;;;5013566;28;20173;-79
2020/12/15 02:23:47;;;;;;;44.30;25.50;;;;;;;;;;5015010;28;20188;-79
2020/12/15 02:26:12;;;;;;;43.03;26.07;;;;;;;;;;5014115;28;20165;-79
2020/12/15 02:28:38;;;;;;;40.47;23.27;;;;;;;;;;5014343;28;20542;-79
2020/12/15 02:31:03;;;;;;;54.63;30.60;;;;;;;;;;5014591;28;20173;-79
2020/12/15 02:33:30;;;;;;;71.00;37.37;;;;;;;;;;5013785;28;20635;-78
2020/12/15 02:35:56;;;;;;;58.50;34.73;;;;;;;;;;5013968;28;20754;-79
2020/12/15 02:38:21;;;;;;;39.80;22.07;;;;;;;;;;5013712;28;20252;-79
2020/12/15 02:40:46;;;;;;;56.57;32.77;;;;;;;;;;5014029;28;20264;-79
2020/12/15 02:43:12;;;;;;;45.97;25.80;;;;;;;;;;5014262;28;20172;-79
2020/12/15 02:45:37;;;;;;;45.10;24.37;;;;;;;;;;5014279;28;20248;-79
2020/12/15 02:48:02;;;;;;;55.33;33.93;;;;;;;;;;5013805;28;20244;-79
2020/12/15 02:50:28;;;;;;;63.40;38.10;;;;;;;;;;5013547;28;20165;-79
2020/12/15 02:52:53;;;;;;;41.70;24.00;;;;;;;;;;5014139;28;20176;-79
2020/12/15 02:55:19;;;;;;;36.90;20.90;;;;;;;;;;5014171;28;20170;-79
2020/12/15 02:57:47;;;;;;;36.33;20.43;;;;;;;;;;5014143;28;20169;-79
2020/12/15 03:00:12;;;;;;;41.50;22.53;;;;;;;;;;5014461;28;20694;-79
2020/12/15 03:02:37;;;;;;;38.80;23.03;;;;;;;;;;5013594;28;20252;-79
2020/12/15 03:05:03;;;;;;;39.40;22.43;;;;;;;;;;5013777;28;20578;-79
2020/12/15 03:07:29;;;;;;;33.97;20.63;;;;;;;;;;5013531;28;20212;-79
2020/12/15 03:09:54;;;;;;;38.37;20.57;;;;;;;;;;5013667;28;20209;-79
2020/12/15 03:12:20;;;;;;;40.47;22.40;;;;;;;;;;5013399;28;20180;-79
2020/12/15 03:14:46;;;;;;;40.53;22.20;;;;;;;;;;5013655;28;20173;-79
2020/12/15 03:17:11;;;;;;;38.10;21.30;;;;;;;;;;5013394;28;20201;-78
2020/12/15 03:19:37;;;;;;;42.03;22.67;;;;;;;;;;5013606;28;20174;-78
2020/12/15 03:22:02;;;;;;;37.17;21.13;;;;;;;;;;5013366;28;20244;-78
2020/12/15 03:24:28;;;;;;;43.57;25.93;;;;;;;;;;5013813;28;20176;-78
2020/12/15 03:26:53;;;;;;;49.03;25.77;;;;;;;;;;5013239;28;20607;-78
2020/12/15 03:29:18;;;;;;;37.77;20.70;;;;;;;;;;5013221;28;20300;-78
2020/12/15 03:31:44;;;;;;;38.50;21.07;;;;;;;;;;5015068;28;20211;-78
2020/12/15 03:34:09;;;;;;;34.97;20.40;;;;;;;;;;5017135;28;20180;-78
2020/12/15 03:36:34;;;;;;;40.70;21.63;;;;;;;;;;5017320;28;20177;-78
2020/12/15 03:39:00;;;;;;;36.77;20.43;;;;;;;;;;5017248;28;20620;-79
2020/12/15 03:41:25;;;;;;;40.40;21.13;;;;;;;;;;5017175;28;20632;-79
2020/12/15 03:43:51;;;;;;;42.40;20.60;;;;;;;;;;5017211;28;20220;-78
2020/12/15 03:46:16;;;;;;;40.70;21.17;;;;;;;;;;5016534;28;20173;-79
2020/12/15 03:48:42;;;;;;;38.33;21.37;;;;;;;;;;5016519;28;20201;-78
2020/12/15 03:51:07;;;;;;;50.30;26.63;;;;;;;;;;5016860;28;20510;-78
2020/12/15 03:53:32;;;;;;;53.63;28.43;;;;;;;;;;5016790;28;20195;-79
2020/12/15 03:55:58;;;;;;;53.17;30.63;;;;;;;;;;5016761;28;20662;-78
2020/12/15 03:58:23;;;;;;;99.00;48.00;;;;;;;;;;5016436;28;20225;-78
2020/12/15 04:00:48;;;;;;;82.07;41.80;;;;;;;;;;5016972;28;20162;-78
2020/12/15 04:03:14;;;;;;;62.77;35.23;;;;;;;;;;5016520;28;20176;-78
2020/12/15 04:05:39;;;;;;;40.43;21.20;;;;;;;;;;5016228;28;20200;-79
2020/12/15 04:08:04;;;;;;;58.57;28.60;;;;;;;;;;5017266;28;20314;-78
2020/12/15 04:10:30;;;;;;;48.23;23.20;;;;;;;;;;5016277;28;20173;-78
2020/12/15 04:12:56;;;;;;;43.13;20.13;;;;;;;;;;5016358;28;20211;-78
2020/12/15 04:15:21;;;;;;;48.93;22.70;;;;;;;;;;5016351;28;20170;-78
2020/12/15 04:17:47;;;;;;;46.80;22.83;;;;;;;;;;5016576;28;20187;-78
2020/12/15 04:20:12;;;;;;;50.03;22.03;;;;;;;;;;5015955;28;20577;-78
2020/12/15 04:22:38;;;;;;;57.50;24.93;;;;;;;;;;5016793;28;20264;-78
2020/12/15 04:25:04;;;;;;;53.70;24.80;;;;;;;;;;5016992;28;20508;-78
2020/12/15 04:27:29;;;;;;;55.30;25.57;;;;;;;;;;5016129;28;20184;-78
2020/12/15 04:29:55;;;;;;;58.03;28.60;;;;;;;;;;5015985;28;20205;-78
2020/12/15 04:32:21;;;;;;;51.63;27.03;;;;;;;;;;5015666;28;20196;-79
2020/12/15 04:34:46;;;;;;;55.80;27.17;;;;;;;;;;5015648;28;20173;-78
2020/12/15 04:37:11;;;;;;;54.37;22.03;;;;;;;;;;5016162;28;20173;-78
2020/12/15 04:39:37;;;;;;;51.37;23.47;;;;;;;;;;5016165;28;20173;-78
2020/12/15 04:42:02;;;;;;;55.70;24.30;;;;;;;;;;5015761;28;20170;-78
2020/12/15 04:44:28;;;;;;;54.10;23.23;;;;;;;;;;5015425;28;20173;-78
2020/12/15 04:46:53;;;;;;;67.03;24.20;;;;;;;;;;5015840;28;20199;-78
2020/12/15 04:49:26;;;;;;;59.60;23.20;;;;;;;;;;5015667;28;20200;-78
2020/12/15 04:51:58;;;;;;;74.77;28.80;;;;;;;;;;5016230;28;20173;-78
2020/12/15 04:54:29;;;;;;;79.13;31.77;;;;;;;;;;5015549;28;20169;-78
2020/12/15 04:56:56;;;;;;;83.83;35.53;;;;;;;;;;5016040;28;20176;-79
2020/12/15 04:59:24;;;;;;;67.43;29.90;;;;;;;;;;5015631;28;20310;-78
2020/12/15 05:01:49;;;;;;;61.07;24.67;;;;;;;;;;5015568;28;20260;-78
2020/12/15 05:04:15;;;;;;;76.77;24.33;;;;;;;;;;5015442;28;20580;-78
2020/12/15 05:06:43;;;;;;;63.47;26.47;;;;;;;;;;5015636;28;20173;-78
2020/12/15 05:09:09;;;;;;;79.13;30.53;;;;;;;;;;5015820;28;20672;-78
2020/12/15 05:11:34;;;;;;;77.07;28.37;;;;;;;;;;5015320;28;20269;-78
2020/12/15 05:13:59;;;;;;;98.03;33.03;;;;;;;;;;5015246;28;20176;-78
2020/12/15 05:16:35;;;;;;;108.17;31.47;;;;;;;;;;5015461;28;20239;-78
2020/12/15 05:19:04;;;;;;;105.50;27.17;;;;;;;;;;5015197;28;20638;-78
2020/12/15 05:21:29;;;;;;;74.20;28.43;;;;;;;;;;5015401;28;20177;-78
2020/12/15 05:23:55;;;;;;;81.10;32.33;;;;;;;;;;5015066;28;20227;-78
2020/12/15 05:26:24;;;;;;;79.87;31.30;;;;;;;;;;5015077;28;20196;-78
2020/12/15 05:29:00;;;;;;;70.60;29.37;;;;;;;;;;5014916;28;20564;-78
2020/12/15 05:31:25;;;;;;;112.90;26.80;;;;;;;;;;5014507;28;20275;-78
2020/12/15 05:33:51;;;;;;;103.30;26.13;;;;;;;;;;5014870;28;20739;-78
2020/12/15 05:36:20;;;;;;;59.57;24.47;;;;;;;;;;5015094;28;20169;-78
2020/12/15 05:38:45;;;;;;;93.07;27.57;;;;;;;;;;5015137;28;20180;-78
2020/12/15 05:41:14;;;;;;;74.67;28.73;;;;;;;;;;5015085;28;20173;-78
2020/12/15 05:43:39;;;;;;;62.80;25.87;;;;;;;;;;5014665;28;20178;-78
2020/12/15 05:46:05;;;;;;;69.80;26.07;;;;;;;;;;5015155;28;20181;-78
2020/12/15 05:48:31;;;;;;;83.70;27.03;;;;;;;;;;5014497;28;20554;-79
2020/12/15 05:50:57;;;;;;;79.77;26.83;;;;;;;;;;5014843;28;20198;-79
2020/12/15 05:53:23;;;;;;;99.83;30.30;;;;;;;;;;5014334;28;20173;-79
2020/12/15 05:55:48;;;;;;;113.80;38.10;;;;;;;;;;5014940;28;20169;-78
2020/12/15 05:58:16;;;;;;;111.57;31.63;;;;;;;;;;5014637;28;20185;-79
2020/12/15 06:00:42;;;;;;;124.07;25.63;;;;;;;;;;5014738;28;20184;-79
2020/12/15 06:03:07;;;;;;;119.03;25.10;;;;;;;;;;5014797;28;20609;-78
2020/12/15 06:05:36;;;;;;;112.63;26.77;;;;;;;;;;5014660;28;20243;-78
2020/12/15 06:08:03;;;;;;;112.80;26.87;;;;;;;;;;5014860;28;20516;-78
2020/12/15 06:10:29;;;;;;;99.67;26.10;;;;;;;;;;5014246;28;20243;-78
2020/12/15 06:12:57;;;;;;;94.37;27.53;;;;;;;;;;5014926;28;20184;-78
2020/12/15 06:15:22;;;;;;;145.37;27.27;;;;;;;;;;5014363;28;20170;-78
2020/12/15 06:17:55;;;;;;;115.47;26.17;;;;;;;;;;5014318;28;20196;-78
2020/12/15 06:20:20;;;;;;;125.57;27.20;;;;;;;;;;5014438;28;20616;-78
2020/12/15 06:22:47;;;;;;;129.90;28.57;;;;;;;;;;5013865;28;20169;-78
2020/12/15 06:25:12;;;;;;;112.30;28.53;;;;;;;;;;5014089;28;20528;-78
2020/12/15 06:27:37;;;;;;;147.40;30.87;;;;;;;;;;5014087;28;20169;-78
2020/12/15 06:30:06;;;;;;;137.60;33.20;;;;;;;;;;5014456;28;20555;-78
2020/12/15 06:32:32;;;;;;;162.67;26.30;;;;;;;;;;5014533;28;20191;-78
2020/12/15 06:34:57;;;;;;;106.27;26.63;;;;;;;;;;5014318;28;20519;-78
2020/12/15 06:37:24;;;;;;;148.80;28.23;;;;;;;;;;5013725;28;20628;-78
2020/12/15 06:39:59;;;;;;;165.93;28.43;;;;;;;;;;5013702;28;20281;-78
2020/12/15 06:42:25;;;;;;;166.73;27.97;;;;;;;;;;5013717;28;20169;-78
2020/12/15 06:45:04;;;;;;;145.17;48.47;;;;;;;;;;5013629;28;20166;-79
2020/12/15 06:47:30;;;;;;;115.07;26.40;;;;;;;;;;5013948;28;20153;-78
2020/12/15 06:49:56;;;;;;;151.33;29.63;;;;;;;;;;5013809;28;20211;-78
2020/12/15 06:52:27;;;;;;;130.10;31.40;;;;;;;;;;5026926;28;20180;-78
2020/12/15 06:54:57;;;;;;;111.20;28.77;;;;;;;;;;5033627;28;20176;-78
2020/12/15 06:57:29;;;;;;;136.53;33.07;;;;;;;;;;5033629;28;20233;-78
2020/12/15 06:59:55;;;;;;;141.33;31.57;;;;;;;;;;5030594;28;20227;-79
2020/12/15 07:02:27;;;;;;;137.57;39.07;;;;;;;;;;5033084;28;20259;-79
2020/12/15 07:04:53;;;;;;;131.00;36.03;;;;;;;;;;5033689;28;20616;-79
2020/12/15 07:07:18;;;;;;;106.80;28.83;;;;;;;;;;5035783;28;20204;-79
2020/12/15 07:09:44;;;;;;;127.70;30.50;;;;;;;;;;5037734;28;20278;-79
2020/12/15 07:12:10;;;;;;;128.90;38.93;;;;;;;;;;5036930;28;20172;-79
2020/12/15 07:14:35;;;;;;;138.10;37.97;;;;;;;;;;5037413;28;20177;-79
2020/12/15 07:17:01;;;;;;;109.97;32.97;;;;;;;;;;5036732;28;20179;-78
2020/12/15 07:19:27;;;;;;;89.83;27.27;;;;;;;;;;5037064;28;20172;-79
2020/12/15 07:21:53;;;;;;;100.77;33.27;;;;;;;;;;5037091;28;20173;-79
2020/12/15 07:24:18;;;;;;;95.47;32.07;;;;;;;;;;5037349;28;20173;-79
2020/12/15 07:26:44;;;;;;;80.70;26.90;;;;;;;;;;5036950;28;20259;-78
2020/12/15 07:29:09;;;;;;;96.83;36.60;;;;;;;;;;5036855;28;20729;-79
2020/12/15 07:31:35;;;;;;;114.50;34.23;;;;;;;;;;5036901;28;20192;-78
2020/12/15 07:34:07;;;;;;;98.83;33.17;;;;;;;;;;5036547;28;20638;-78
2020/12/15 07:36:33;;;;;;;86.07;28.33;;;;;;;;;;5036509;28;20172;-79
2020/12/15 07:38:58;;;;;;;88.60;34.90;;;;;;;;;;5036786;28;20177;-78
2020/12/15 07:41:24;;;;;;;120.60;45.97;;;;;;;;;;5035649;28;20185;-79
2020/12/15 07:43:54;;;;;;;119.67;47.83;;;;;;;;;;5036620;28;20180;-78
2020/12/15 07:46:23;;;;;;;69.73;27.53;;;;;;;;;;5036275;28;20537;-79
2020/12/15 07:48:50;;;;;;;68.03;28.07;;;;;;;;;;5037018;28;20207;-79
2020/12/15 07:51:15;;;;;;;105.63;46.97;;;;;;;;;;5034904;28;20258;-79
2020/12/15 07:53:51;;;;;;;103.77;41.50;;;;;;;;;;5027950;28;20601;-79
2020/12/15 07:56:17;;;;;;;65.80;27.33;;;;;;;;;;5036491;28;20175;-78
2020/12/15 07:58:43;;;;;;;91.67;39.77;;;;;;;;;;5036409;28;20685;-79
2020/12/15 08:01:08;;;;;;;153.03;65.70;;;;;;;;;;5036315;28;20173;-79
2020/12/15 08:03:34;;;;;;;95.97;31.20;;;;;;;;;;5036376;28;20175;-78
2020/12/15 08:06:06;;;;;;;263.60;89.30;;;;;;;;;;5035989;28;20176;-79
2020/12/15 08:08:33;;;;;;;178.20;69.17;;;;;;;;;;5036569;28;20223;-79
2020/12/15 08:10:58;;;;;;;127.17;57.03;;;;;;;;;;5036222;28;20198;-79
2020/12/15 08:13:24;;;;;;;63.20;26.77;;;;;;;;;;5035728;28;20226;-79
2020/12/15 08:15:49;;;;;;;74.13;33.20;;;;;;;;;;5036275;28;20722;-79
2020/12/15 08:18:16;;;;;;;67.43;29.00;;;;;;;;;;5034512;28;20171;-79
2020/12/15 08:20:43;;;;;;;80.90;36.30;;;;;;;;;;5035110;28;20574;-79
2020/12/15 08:23:10;;;;;;;95.53;39.93;;;;;;;;;;5035419;28;20208;-79
2020/12/15 08:25:43;;;;;;;102.83;40.47;;;;;;;;;;5035849;28;20632;-79
2020/12/15 08:28:23;;;;;;;85.97;35.47;;;;;;;;;;5032888;28;20189;-79
2020/12/15 08:30:49;;;;;;;126.80;56.53;;;;;;;;;;5016667;28;20208;-78
2020/12/15 08:33:25;;;;;;;91.37;40.73;;;;;;;;;;5016125;28;20193;-78
2020/12/15 08:35:51;;;;;;;112.43;52.60;;;;;;;;;;5015786;28;20184;-78
2020/12/15 08:38:16;;;;;;;66.37;32.63;;;;;;;;;;5023577;28;20181;-78
2020/12/15 08:40:51;;;;;;;95.33;45.43;;;;;;;;;;5021814;28;20181;-78
2020/12/15 08:43:16;;;;;;;74.03;36.77;;;;;;;;;;5016123;28;20168;-78
2020/12/15 08:45:41;;;;;;;64.43;32.03;;;;;;;;;;5016022;28;20517;-78
2020/12/15 08:48:14;;;;;;;57.53;30.30;;;;;;;;;;5015724;28;20173;-79
2020/12/15 08:50:39;;;;;;;56.20;31.57;;;;;;;;;;5015688;28;20169;-79
2020/12/15 08:53:08;;;;;;;90.70;47.23;;;;;;;;;;5028697;28;20508;-79
2020/12/15 08:55:35;;;;;;;58.47;33.10;;;;;;;;;;5035061;28;20259;-79
2020/12/15 08:58:01;;;;;;;53.53;30.13;;;;;;;;;;5034077;28;20189;-79
2020/12/15 09:00:28;;;;;;;44.00;24.73;;;;;;;;;;5032036;28;20601;-79
2020/12/15 09:03:03;;;;;;;51.80;29.27;;;;;;;;;;5028078;28;20187;-79
2020/12/15 09:05:28;;;;;;;52.17;26.67;;;;;;;;;;5035281;28;20215;-79
2020/12/15 09:07:53;;;;;;;57.87;31.00;;;;;;;;;;5034976;28;20520;-79
2020/12/15 09:10:19;;;;;;;67.73;36.40;;;;;;;;;;5034914;28;20208;-79
2020/12/15 09:12:45;;;;;;;74.87;38.70;;;;;;;;;;5034746;28;20203;-79
2020/12/15 09:15:11;;;;;;;78.77;43.67;;;;;;;;;;5034991;28;20173;-79
2020/12/15 09:17:36;;;;;;;58.30;30.57;;;;;;;;;;5034946;28;20172;-79
2020/12/15 09:20:03;;;;;;;66.03;36.73;;;;;;;;;;5034855;28;20168;-79
2020/12/15 09:22:28;;;;;;;66.77;34.80;;;;;;;;;;5032899;28;20544;-79
2020/12/15 09:24:54;;;;;;;64.83;35.77;;;;;;;;;;5034397;28;20238;-79
2020/12/15 09:27:20;;;;;;;55.10;29.37;;;;;;;;;;5034985;28;20259;-79
2020/12/15 09:29:46;;;;;;;122.17;64.60;;;;;;;;;;5033932;28;20302;-79
2020/12/15 09:32:11;;;;;;;84.30;44.40;;;;;;;;;;5032811;28;20313;-79
2020/12/15 09:34:36;;;;;;;59.97;32.23;;;;;;;;;;5032688;28;20169;-80
2020/12/15 09:37:02;;;;;;;77.20;43.43;;;;;;;;;;5033405;28;20176;-79
2020/12/15 09:39:28;;;;;;;98.47;52.07;;;;;;;;;;5034786;28;20226;-79
2020/12/15 09:41:58;;;;;;;60.20;35.30;;;;;;;;;;5034470;28;20171;-79
2020/12/15 09:44:23;;;;;;;45.17;25.50;;;;;;;;;;5034480;28;20176;-79
2020/12/15 09:46:49;;;;;;;49.67;29.50;;;;;;;;;;5033920;28;20172;-79
2020/12/15 09:49:14;;;;;;;41.70;24.63;;;;;;;;;;5033865;28;20208;-79
2020/12/15 09:51:42;;;;;;;48.00;29.10;;;;;;;;;;5034394;28;20180;-79
2020/12/15 09:54:08;;;;;;;46.93;25.63;;;;;;;;;;5034281;28;20169;-79
2020/12/15 09:56:34;;;;;;;50.20;29.67;;;;;;;;;;5031619;28;20634;-79
2020/12/15 09:58:59;;;;;;;52.00;31.30;;;;;;;;;;5021718;28;20244;-80
2020/12/15 10:01:25;;;;;;;49.73;30.60;;;;;;;;;;5034090;28;20172;-79
2020/12/15 10:03:50;;;;;;;49.57;29.50;;;;;;;;;;5034633;28;20177;-79
2020/12/15 10:06:16;;;;;;;40.67;25.50;;;;;;;;;;5024898;28;20177;-79
2020/12/15 10:08:42;;;;;;;47.47;27.27;;;;;;;;;;5021751;28;20228;-79
2020/12/15 10:11:07;;;;;;;45.87;27.00;;;;;;;;;;5022924;28;20569;-79
2020/12/15 10:13:32;;;;;;;43.50;25.97;;;;;;;;;;5023079;28;20164;-79
2020/12/15 10:15:58;;;;;;;51.67;31.27;;;;;;;;;;5024743;28;20608;-79
2020/12/15 10:18:23;;;;;;;45.27;25.60;;;;;;;;;;5034005;28;20195;-79
2020/12/15 10:20:48;;;;;;;45.97;25.30;;;;;;;;;;5033610;28;20172;-79
2020/12/15 10:23:14;;;;;;;55.40;32.77;;;;;;;;;;5033652;28;20251;-79
2020/12/15 10:25:40;;;;;;;66.10;36.50;;;;;;;;;;5033281;28;20182;-79
2020/12/15 10:28:05;;;;;;;44.53;26.43;;;;;;;;;;5033979;28;20611;-78
2020/12/15 10:30:31;;;;;;;43.97;27.20;;;;;;;;;;5032074;28;20242;-78
2020/12/15 10:32:56;;;;;;;45.83;29.50;;;;;;;;;;5026500;28;20204;-78
2020/12/15 10:35:21;;;;;;;62.50;34.73;;;;;;;;;;5022775;28;20223;-78
2020/12/15 10:37:47;;;;;;;44.43;27.03;;;;;;;;;;5022957;28;20168;-78
2020/12/15 10:40:12;;;;;;;47.50;29.40;;;;;;;;;;5023266;28;20199;-79
2020/12/15 10:42:38;;;;;;;46.07;27.10;;;;;;;;;;5024684;28;20170;-79
2020/12/15 10:45:03;;;;;;;47.73;26.40;;;;;;;;;;5037269;28;20253;-79
2020/12/15 10:47:30;;;;;;;73.37;37.57;;;;;;;;;;5036677;28;20172;-79
2020/12/15 10:49:55;;;;;;;58.03;34.67;;;;;;;;;;5036445;28;20197;-78
2020/12/15 10:52:20;;;;;;;50.10;29.20;;;;;;;;;;5038243;28;20196;-78
2020/12/15 10:54:46;;;;;;;58.13;34.67;;;;;;;;;;5038168;28;20176;-79
2020/12/15 10:57:11;;;;;;;51.47;29.27;;;;;;;;;;5037273;28;20168;-78
2020/12/15 10:59:37;;;;;;;51.27;31.20;;;;;;;;;;5037410;28;20682;-79
2020/12/15 11:02:02;;;;;;;62.53;38.10;;;;;;;;;;5037745;28;20177;-79
2020/12/15 11:04:27;;;;;;;47.13;28.50;;;;;;;;;;5034660;28;20172;-80
2020/12/15 11:06:53;;;;;;;59.43;36.47;;;;;;;;;;5035798;28;20636;-79
2020/12/15 11:09:18;;;;;;;52.50;31.27;;;;;;;;;;5036281;28;20208;-79
2020/12/15 11:11:47;;;;;;;52.03;34.33;;;;;;;;;;5037833;28;20176;-79
2020/12/15 11:14:13;;;;;;;63.17;40.17;;;;;;;;;;5037227;28;20255;-79
2020/12/15 11:16:38;;;;;;;61.50;39.87;;;;;;;;;;5036769;28;20248;-78
2020/12/15 11:19:04;;;;;;;49.50;30.23;;;;;;;;;;5037741;28;20176;-79
2020/12/15 11:21:29;;;;;;;51.37;33.10;;;;;;;;;;5036699;28;20176;-79
2020/12/15 11:23:55;;;;;;;45.20;28.77;;;;;;;;;;5037361;28;20606;-79
2020/12/15 11:26:20;;;;;;;40.87;26.43;;;;;;;;;;5037069;28;20267;-79
2020/12/15 11:28:45;;;;;;;55.33;33.83;;;;;;;;;;5037000;28;20648;-79
2020/12/15 11:31:12;;;;;;;53.80;34.37;;;;;;;;;;5036744;28;20253;-78
2020/12/15 11:33:37;;;;;;;59.27;33.13;;;;;;;;;;5036673;28;20674;-78
2020/12/15 11:36:02;;;;;;;44.47;26.80;;;;;;;;;;5036637;28;20173;-78
2020/12/15 11:38:28;;;;;;;45.80;27.60;;;;;;;;;;5036888;28;20268;-79
2020/12/15 11:40:53;;;;;;;43.93;26.33;;;;;;;;;;5037021;28;20165;-78
2020/12/15 11:43:19;;;;;;;50.53;31.03;;;;;;;;;;5037101;28;20277;-79
2020/12/15 11:45:45;;;;;;;57.77;35.07;;;;;;;;;;5035393;28;20227;-79
2020/12/15 11:48:10;;;;;;;98.40;53.03;;;;;;;;;;5036085;28;20172;-79
2020/12/15 11:50:36;;;;;;;69.60;43.23;;;;;;;;;;5036896;28;20258;-79
2020/12/15 11:53:01;;;;;;;71.17;42.90;;;;;;;;;;5036230;28;20169;-79
2020/12/15 11:55:27;;;;;;;50.30;32.67;;;;;;;;;;5035155;28;20502;-79
2020/12/15 11:57:52;;;;;;;54.87;33.40;;;;;;;;;;5036092;28;20200;-80
2020/12/15 12:00:18;;;;;;;52.60;33.53;;;;;;;;;;5036386;28;20255;-80
2020/12/15 12:02:44;;;;;;;57.03;36.77;;;;;;;;;;5034488;28;20567;-80
2020/12/15 12:05:09;;;;;;;65.70;40.23;;;;;;;;;;5035054;28;20177;-79
2020/12/15 12:07:34;;;;;;;80.13;51.53;;;;;;;;;;5036568;28;20169;-79
2020/12/15 12:10:00;;;;;;;50.37;32.23;;;;;;;;;;5036086;28;20204;-79
2020/12/15 12:12:25;;;;;;;46.17;26.47;;;;;;;;;;5035825;28;20216;-78
2020/12/15 12:14:50;;;;;;;52.93;31.87;;;;;;;;;;5035855;28;20173;-79
2020/12/15 12:17:16;;;;;;;45.93;29.50;;;;;;;;;;5036313;28;20169;-78
2020/12/15 12:19:41;;;;;;;47.33;28.70;;;;;;;;;;5031407;28;20266;-79
2020/12/15 12:22:06;;;;;;;56.30;32.10;;;;;;;;;;5035002;28;20180;-79
2020/12/15 12:24:32;;;;;;;52.83;31.70;;;;;;;;;;5035661;28;20173;-79
2020/12/15 12:27:00;;;;;;;52.67;30.27;;;;;;;;;;5035897;28;20164;-79
2020/12/15 12:29:25;;;;;;;59.27;38.97;;;;;;;;;;5035227;28;20240;-78
2020/12/15 12:31:51;;;;;;;43.60;26.90;;;;;;;;;;5035745;28;20539;-79
2020/12/15 12:34:16;;;;;;;48.27;29.67;;;;;;;;;;5035806;28;20242;-78
2020/12/15 12:36:42;;;;;;;67.33;37.63;;;;;;;;;;5035765;28;20177;-78
2020/12/15 12:39:07;;;;;;;51.23;30.03;;;;;;;;;;5035689;28;20179;-78
2020/12/15 12:41:32;;;;;;;45.97;27.60;;;;;;;;;;5035547;28;20187;-78
2020/12/15 12:43:58;;;;;;;70.80;43.53;;;;;;;;;;5035217;28;20222;-79
2020/12/15 12:46:23;;;;;;;46.83;29.67;;;;;;;;;;5035660;28;20516;-79
2020/12/15 12:48:49;;;;;;;52.37;30.83;;;;;;;;;;5034900;28;20204;-79
2020/12/15 12:51:17;;;;;;;47.33;28.50;;;;;;;;;;5033720;28;20185;-79
2020/12/15 12:53:44;;;;;;;48.20;30.40;;;;;;;;;;5032474;28;20195;-79
2020/12/15 12:56:09;;;;;;;50.87;29.40;;;;;;;;;;5035213;28;20181;-78
2020/12/15 12:58:35;;;;;;;52.43;30.33;;;;;;;;;;5034889;28;20556;-78
2020/12/15 13:01:00;;;;;;;51.80;30.40;;;;;;;;;;5035456;28;20194;-78
2020/12/15 13:03:26;;;;;;;57.00;32.93;;;;;;;;;;5034777;28;20207;-79
2020/12/15 13:05:51;;;;;;;48.00;29.33;;;;;;;;;;5034823;28;20619;-79
2020/12/15 13:08:16;;;;;;;52.13;29.77;;;;;;;;;;5035421;28;20187;-79
2020/12/15 13:10:42;;;;;;;47.50;26.30;;;;;;;;;;5035227;28;20211;-79
2020/12/15 13:13:07;;;;;;;48.97;29.13;;;;;;;;;;5033801;28;20183;-79
2020/12/15 13:15:33;;;;;;;42.10;24.53;;;;;;;;;;5034851;28;20705;-79
2020/12/15 13:17:58;;;;;;;50.80;29.47;;;;;;;;;;5033365;28;20532;-79
2020/12/15 13:20:24;;;;;;;53.50;31.53;;;;;;;;;;5035086;28;20615;-79
2020/12/15 13:22:50;;;;;;;53.60;31.53;;;;;;;;;;5034319;28;20172;-79
2020/12/15 13:25:15;;;;;;;54.73;31.93;;;;;;;;;;5034555;28;20697;-79
2020/12/15 13:27:41;;;;;;;58.30;34.13;;;;;;;;;;5034948;28;20173;-79
2020/12/15 13:30:06;;;;;;;61.33;35.30;;;;;;;;;;5034648;28;20343;-79
2020/12/15 13:32:32;;;;;;;51.97;29.63;;;;;;;;;;5034880;28;20188;-79
2020/12/15 13:34:58;;;;;;;98.17;56.27;;;;;;;;;;5034648;28;20168;-79
2020/12/15 13:37:26;;;;;;;69.63;40.03;;;;;;;;;;5034503;28;20260;-79
2020/12/15 13:39:51;;;;;;;91.80;49.00;;;;;;;;;;5034605;28;20677;-79
2020/12/15 13:42:19;;;;;;;215.13;111.27;;;;;;;;;;5034825;28;20164;-79
2020/12/15 13:44:44;;;;;;;87.27;52.00;;;;;;;;;;5034412;28;20212;-79
2020/12/15 13:47:09;;;;;;;62.87;36.03;;;;;;;;;;5034730;28;20169;-79
2020/12/15 13:49:35;;;;;;;103.70;56.00;;;;;;;;;;5034073;28;20659;-79
2020/12/15 13:52:00;;;;;;;105.57;53.03;;;;;;;;;;5034340;28;20279;-79
2020/12/15 13:54:26;;;;;;;93.43;47.57;;;;;;;;;;5034057;28;20179;-79
2020/12/15 13:56:52;;;;;;;87.10;47.13;;;;;;;;;;5033022;28;20187;-79
2020/12/15 13:59:17;;;;;;;52.60;30.67;;;;;;;;;;5033566;28;20231;-79
2020/12/15 14:01:47;;;;;;;138.23;73.67;;;;;;;;;;5033985;28;20192;-78
2020/12/15 14:04:13;;;;;;;78.40;46.63;;;;;;;;;;5034068;28;20578;-78
2020/12/15 14:06:38;;;;;;;116.67;63.23;;;;;;;;;;5033661;28;20172;-79
2020/12/15 14:09:04;;;;;;;77.93;42.83;;;;;;;;;;5033744;28;20196;-79